Latest Weather Observations for Mount Crawford

IDS60801

Issued at 6:35 pm CST Friday 25 April 2014 (issued every 30 minutes, with the page automatically refreshed every 10 minutes)

About weather observations | Map of weather stations | Latest weather observations for SA | Other Formats
Station Details ID: 023878 Name: MT CRAWFORD AWS Lat: -34.73 Lon: 138.93 Height: 525.0 m
Data from the previous 72 hours. | See also: Recent months at Mount Crawford
Date/Time
CST
Temp
°C
App
Temp
°C
Dew
Point
Rel
Hum
%
Delta-T
°C
Wind Press
QNH
hPa
Press
MSL
hPa
Rain
since 9 am
mm
Dir
 
Spd
km/h
Gust
km/h
Spd
kts
Gust
kts
25/06:30pm 16.3 12.8 7.3 55 4.6 WNW 15 20 8 11 1012.6 1011.6 0.0
25/06:00pm 16.3 12.5 7.5 56 4.5 WNW 17 20 9 11 1012.2 1011.2 0.0
25/05:30pm 16.7 12.9 7.4 54 4.8 W 17 20 9 11 1011.8 1010.8 0.0
25/05:00pm 17.4 14.2 6.9 50 5.4 WNW 13 19 7 10 1012.0 - 0.0
25/04:30pm 17.6 14.4 6.8 49 5.5 NW 13 20 7 11 1012.0 1011.0 0.0
25/04:00pm 18.0 14.0 6.8 48 5.7 NW 17 28 9 15 1012.3 - 0.0
25/03:30pm 18.3 13.7 6.5 46 6.0 NW 20 28 11 15 1012.4 1011.4 0.0
25/03:00pm 18.5 13.8 7.6 49 5.7 NNW 22 32 12 17 1012.5 1011.5 0.0
25/02:30pm 18.6 13.9 7.7 49 5.7 NNW 22 33 12 18 1012.7 1011.7 0.0
25/02:00pm 18.8 13.7 7.6 48 5.9 NNW 24 37 13 20 1012.9 - 0.0
25/01:30pm 18.8 14.1 7.6 48 5.9 N 22 33 12 18 1013.3 1012.2 0.0
25/01:00pm 18.9 14.8 8.6 51 5.5 N 20 30 11 16 1013.7 - 0.0
25/12:30pm 18.0 14.6 9.1 56 4.8 N 17 24 9 13 1014.5 1013.5 0.0
25/12:00pm 18.8 14.3 8.7 52 5.4 N 22 33 12 18 1015.1 1014.1 0.0
25/11:30am 17.1 12.3 9.0 59 4.3 N 24 35 13 19 1015.7 1014.7 0.0
25/11:00am 17.0 12.5 8.4 57 4.5 N 22 32 12 17 1016.0 - 0.0
25/10:30am 16.5 11.5 8.0 57 4.4 N 24 32 13 17 1016.6 1015.6 0.0
25/10:00am 16.3 11.7 8.0 58 4.3 NNE 22 28 12 15 1016.8 - 0.0
25/09:30am 15.8 12.1 7.8 59 4.1 NNE 17 24 9 13 1017.5 1016.5 0.0
25/09:00am 14.3 10.6 6.4 59 3.9 NNE 15 20 8 11 1017.6 1016.6 0.0
25/08:30am 13.9 9.9 5.0 55 4.3 ENE 15 20 8 11 1017.7 1016.7 0.0
25/08:00am 12.3 7.3 3.8 56 3.9 ENE 19 24 10 13 1017.6 - 0.0
25/07:30am 11.7 7.1 3.5 57 3.7 NE 17 22 9 12 1017.8 1016.8 0.0
25/07:00am 10.5 5.1 2.6 58 3.5 NE 20 28 11 15 1017.7 - 0.0
25/06:30am 10.8 4.7 2.6 57 3.6 NE 24 30 13 16 1017.5 1016.5 0.0
25/06:00am 10.6 5.5 2.9 59 3.4 ENE 19 26 10 14 1017.6 1016.6 0.0
25/05:30am 10.0 4.9 2.8 61 3.2 ENE 19 24 10 13 1017.5 1016.5 0.0
25/05:00am 10.0 5.2 2.8 61 3.2 ENE 17 22 9 12 1017.6 - 0.0
25/04:30am 9.6 4.5 3.1 64 2.9 ENE 19 24 10 13 1017.7 1016.7 0.0
25/04:00am 9.0 3.7 3.2 67 2.6 ENE 20 24 11 13 1017.5 - 0.0
25/03:30am 9.1 4.1 3.5 68 2.5 ENE 19 24 10 13 1017.5 1016.5 0.0
25/03:00am 9.2 4.0 3.6 68 2.5 E 20 26 11 14 1017.8 1016.8 0.0
25/02:30am 8.7 3.6 3.9 72 2.2 E 20 24 11 13 1018.0 1017.0 0.0
25/02:00am 8.6 3.5 4.2 74 2.0 E 20 26 11 14 1018.1 - 0.0
25/01:30am 8.1 2.7 4.5 78 1.6 E 22 24 12 13 1018.4 1017.5 0.0
25/01:00am 7.5 2.2 5.0 84 1.1 ESE 22 24 12 13 1018.5 - 0.0
25/12:30am 7.4 2.1 5.2 86 1.0 ESE 22 24 12 13 1018.7 1017.8 0.0
25/12:00am 7.6 2.3 5.2 85 1.1 ESE 22 24 12 13 1018.9 1018.0 0.0
 
Date/Time
CST
Temp
°C
App
Temp
°C
Dew
Point
Rel
Hum
%
Delta-T
°C
Wind Press
QNH
hPa
Press
MSL
hPa
Rain
since 9 am
mm
Dir
 
Spd
km/h
Gust
km/h
Spd
kts
Gust
kts
24/11:30pm 7.7 2.1 5.5 86 1.0 ESE 24 26 13 14 1019.0 1018.1 0.0
24/11:00pm 7.8 2.6 5.4 85 1.1 ESE 22 28 12 15 1019.3 - 0.0
24/10:30pm 8.2 2.7 5.7 84 1.2 ESE 24 28 13 15 1019.5 1018.5 0.0
24/10:00pm 8.3 3.1 5.4 82 1.3 SE 22 26 12 14 1019.7 - 0.0
24/09:30pm 8.4 3.6 5.5 82 1.3 SE 20 26 11 14 1019.7 1018.7 0.0
24/09:00pm 8.7 3.5 5.4 80 1.5 SE 22 28 12 15 1019.5 1018.5 0.0
24/08:30pm 8.7 3.8 5.1 78 1.7 SE 20 24 11 13 1019.4 1018.4 0.0
24/08:00pm 9.1 4.2 5.1 76 1.9 ESE 20 26 11 14 1019.0 - 0.0
24/07:30pm 9.5 4.6 5.3 75 2.0 SE 20 28 11 15 1018.8 1017.9 0.0
24/07:00pm 9.9 4.8 5.9 76 1.9 SE 22 30 12 16 1018.7 - 0.0
24/06:30pm 10.6 5.6 6.4 75 2.0 SE 22 30 12 16 1018.5 1017.6 0.0
24/06:00pm 11.1 6.6 6.8 75 2.1 ESE 20 28 11 15 1018.3 1017.4 0.0
24/05:30pm 12.2 7.3 7.1 71 2.5 ESE 22 30 12 16 1017.9 1016.9 0.0
24/05:00pm 13.4 9.7 8.0 70 2.7 SE 17 20 9 11 1017.8 - 0.0
24/04:30pm 14.2 10.9 8.2 67 3.1 SE 15 20 8 11 1017.8 1016.8 0.0
24/04:00pm 15.3 12.6 9.0 66 3.3 ESE 13 17 7 9 1017.8 - 0.0
24/03:30pm 15.1 12.3 8.6 65 3.4 SE 13 20 7 11 1017.7 1016.7 0.0
24/03:00pm 15.7 13.0 8.9 64 3.6 SE 13 20 7 11 1017.6 1016.6 0.0
24/02:30pm 15.7 13.2 9.6 67 3.2 ESE 13 19 7 10 1017.7 1016.7 0.0
24/02:00pm 15.7 13.2 9.8 68 3.2 SE 13 22 7 12 1017.6 - 0.0
24/01:30pm 15.7 12.5 11.3 75 2.4 ESE 19 28 10 15 1017.7 1016.7 0.0
24/01:00pm 14.8 11.5 10.8 77 2.2 SE 19 28 10 15 1017.9 - 0.0
24/12:30pm 14.8 11.5 11.6 81 1.8 SE 20 30 11 16 1018.2 1017.2 0.0
24/12:00pm 14.1 10.1 11.8 86 1.3 SSE 24 33 13 18 1018.5 1017.6 0.0
24/11:30am 14.1 10.9 11.1 82 1.6 SSE 19 24 10 13 1018.7 1017.8 0.0
24/11:00am 13.1 10.1 12.0 93 0.6 SE 19 24 10 13 1018.7 - 0.0
24/10:30am 12.8 9.7 11.5 92 0.7 S 19 26 10 14 1018.6 1017.7 0.0
24/10:00am 14.2 11.5 12.9 92 0.7 S 19 28 10 15 1018.4 - 0.0
24/09:30am 13.6 11.1 12.2 91 0.8 S 17 24 9 13 1018.4 1017.5 0.0
24/09:00am 13.7 11.8 13.1 96 0.3 S 15 26 8 14 1018.3 1017.4 0.0
24/08:30am 12.4 11.4 12.4 100 0.0 SSW 9 19 5 10 1018.2 1017.2 0.0
24/08:00am 11.8 10.7 11.8 100 0.0 WSW 9 15 5 8 1017.7 - 0.0
24/07:30am 11.8 9.9 11.8 100 0.0 W 13 20 7 11 1016.9 1016.0 0.0
24/07:00am 11.5 9.5 11.5 100 0.0 W 13 17 7 9 1016.6 - 0.0
24/06:30am 11.5 9.5 11.5 100 0.0 W 13 17 7 9 1016.3 1015.3 0.0
24/06:00am 11.6 8.8 11.4 99 0.1 W 17 24 9 13 1015.9 1014.9 0.0
24/05:30am 11.6 8.8 11.4 99 0.1 W 17 26 9 14 1015.7 1014.7 0.0
24/05:00am 11.7 8.6 11.5 99 0.1 W 19 28 10 15 1015.5 - 0.0
24/04:30am 11.6 8.2 11.4 99 0.1 W 20 32 11 17 1015.2 1014.2 0.0
24/04:00am 11.6 8.2 11.4 99 0.1 W 20 32 11 17 1014.8 - 0.0
24/03:30am 11.3 8.1 11.1 99 0.1 W 19 26 10 14 1014.7 1013.7 0.0
24/03:00am 11.0 7.5 10.8 99 0.1 W 20 32 11 17 1014.8 1013.8 0.0
24/02:30am 10.9 6.9 10.3 96 0.3 W 22 30 12 16 1014.8 1013.8 0.0
24/02:00am 11.1 5.8 10.0 93 0.6 W 28 35 15 19 1014.7 - 0.0
24/01:30am 10.9 5.7 8.8 87 1.1 W 26 35 14 19 1014.8 1013.8 0.0
24/01:00am 11.3 6.0 8.5 83 1.4 W 26 35 14 19 1014.8 - 0.0
24/12:30am 11.1 5.2 7.6 79 1.7 W 28 37 15 20 1014.7 1013.7 0.0
24/12:00am 11.7 4.9 7.0 73 2.3 W 32 41 17 22 1014.7 1013.7 0.0
 
Date/Time
CST
Temp
°C
App
Temp
°C
Dew
Point
Rel
Hum
%
Delta-T
°C
Wind Press
QNH
hPa
Press
MSL
hPa
Rain
since 9 am
mm
Dir
 
Spd
km/h
Gust
km/h
Spd
kts
Gust
kts
23/11:30pm 11.5 5.4 6.8 73 2.3 W 28 37 15 20 1015.1 1014.1 0.0
23/11:00pm 11.8 5.7 6.7 71 2.5 W 28 35 15 19 1015.2 - 0.0
23/10:30pm 12.1 6.0 6.8 70 2.6 W 28 35 15 19 1015.3 1014.3 0.0
23/10:00pm 12.2 6.1 6.5 68 2.8 W 28 33 15 18 1015.3 - 0.0
23/09:30pm 12.8 6.7 6.4 65 3.1 W 28 35 15 19 1015.3 1014.3 0.0
23/09:00pm 13.0 7.2 6.1 63 3.4 W 26 32 14 17 1015.1 1014.1 0.0
23/08:30pm 13.0 8.2 5.4 60 3.7 WNW 20 28 11 15 1015.2 1014.2 0.0
23/08:00pm 13.0 8.7 5.2 59 3.7 WNW 17 20 9 11 1015.4 - 0.0
23/07:30pm 13.0 8.5 4.4 56 4.0 WNW 17 20 9 11 1015.6 1014.6 0.0
23/07:00pm 13.1 8.8 3.5 52 4.4 WNW 15 19 8 10 1015.5 - 0.0
23/06:30pm 13.2 8.4 2.4 48 4.9 WNW 17 20 9 11 1015.5 1014.5 0.0
23/06:00pm 13.3 9.1 1.6 45 5.2 WNW 13 17 7 9 1015.1 1014.1 0.0
23/05:30pm 14.2 10.1 2.1 44 5.5 WNW 13 20 7 11 1015.1 1014.1 0.0
23/05:00pm 15.0 11.1 3.5 46 5.4 WNW 13 19 7 10 1014.9 - 0.0
23/04:30pm 15.5 11.9 2.7 42 5.9 WNW 11 17 6 9 1014.5 1013.5 0.0
23/04:00pm 17.0 13.2 4.0 42 6.3 W 13 20 7 11 1014.7 - 0.0
23/03:30pm 16.8 12.7 4.5 44 6.0 W 15 22 8 12 1014.8 1013.8 0.0
23/03:00pm 17.0 13.2 4.0 42 6.3 W 13 22 7 12 1014.8 1013.8 0.0
23/02:30pm 17.3 14.8 4.6 43 6.2 WNW 7 17 4 9 1014.9 1013.9 0.0
23/02:00pm 16.8 14.0 5.1 46 5.7 WNW 9 17 5 9 1015.2 - 0.0
23/01:30pm 16.2 12.8 3.9 44 5.9 WNW 11 20 6 11 1015.5 1014.5 0.0
23/01:00pm 15.7 11.9 3.8 45 5.6 WNW 13 19 7 10 1016.0 - 0.0
23/12:30pm 15.3 11.9 4.1 47 5.3 W 11 15 6 8 1016.4 1015.4 0.0
23/12:00pm 15.1 11.6 3.6 46 5.4 W 11 19 6 10 1016.8 1015.9 0.0
23/11:30am 15.4 12.0 3.9 46 5.4 WNW 11 15 6 8 1017.4 1016.4 0.0
23/11:00am 15.0 11.6 4.1 48 5.2 NW 11 17 6 9 1017.6 - 0.0
23/10:30am 14.5 11.0 3.6 48 5.1 NNW 11 19 6 10 1017.9 1016.9 0.0
23/10:00am 13.5 10.6 4.4 54 4.3 WNW 9 15 5 8 1018.1 - 0.0
23/09:30am 13.3 10.9 5.2 58 3.9 NNW 7 11 4 6 1018.1 1017.1 0.0
23/09:00am 11.3 9.0 7.4 77 1.9 NE 9 11 5 6 1018.1 1017.1 0.0
23/08:30am 10.4 7.5 8.0 85 1.2 ENE 13 17 7 9 1017.9 1016.9 0.0
23/08:00am 10.2 7.7 8.0 86 1.1 ENE 11 13 6 7 1017.6 - 0.0
23/07:30am 10.2 8.0 7.8 85 1.2 ENE 9 13 5 7 1017.7 1016.7 0.0
23/07:00am 9.1 6.6 8.2 94 0.4 ENE 11 13 6 7 1017.3 - 0.0
23/06:30am 8.5 5.6 8.2 98 0.1 ENE 13 15 7 8 1017.2 1016.2 0.0
23/06:00am 8.4 5.5 8.0 97 0.2 E 13 15 7 8 1016.9 1016.0 0.0
23/05:30am 8.9 6.4 8.1 95 0.4 E 11 13 6 7 1017.2 1016.2 0.0
23/05:00am 8.8 5.9 8.2 96 0.3 E 13 13 7 7 1017.2 - 0.0
23/04:30am 8.6 5.7 8.2 97 0.2 E 13 15 7 8 1017.1 1016.1 0.0
23/04:00am 8.6 6.1 8.0 96 0.3 E 11 15 6 8 1017.1 - 0.0
23/03:30am 8.6 5.6 7.8 95 0.4 E 13 15 7 8 1017.2 1016.2 0.0
23/03:00am 8.4 5.8 7.8 96 0.3 E 11 13 6 7 1017.4 1016.4 0.0
23/02:30am 9.6 5.8 7.7 88 0.9 SSE 17 20 9 11 1017.4 1016.4 0.0
23/02:00am 9.5 5.7 7.6 88 0.9 S 17 20 9 11 1017.6 - 0.0
23/01:30am 9.4 5.1 7.8 90 0.8 SSE 20 24 11 13 1017.7 1016.7 0.0
23/01:00am 9.7 5.4 7.8 88 0.9 SSE 20 24 11 13 1017.9 - 0.0
23/12:30am 9.4 5.3 7.8 90 0.8 SSE 19 22 10 12 1018.1 1017.1 0.0
23/12:00am 9.3 5.5 7.6 89 0.8 SSE 17 22 9 12 1018.3 1017.4 0.0
 
Date/Time
CST
Temp
°C
App
Temp
°C
Dew
Point
Rel
Hum
%
Delta-T
°C
Wind Press
QNH
hPa
Press
MSL
hPa
Rain
since 9 am
mm
Dir
 
Spd
km/h
Gust
km/h
Spd
kts
Gust
kts
22/11:30pm 9.7 5.3 7.5 86 1.1 SSE 20 24 11 13 1018.5 1017.6 0.0
22/11:00pm 9.5 5.3 7.4 87 1.0 SE 19 24 10 13 1018.4 - 0.0
22/10:30pm 10.0 5.3 7.6 85 1.2 SSE 22 28 12 15 1018.4 1017.5 0.0
22/10:00pm 9.6 5.4 7.5 87 1.0 SE 19 22 10 12 1018.5 - 0.0
22/09:30pm 10.2 5.4 7.4 83 1.4 SSE 22 28 12 15 1018.6 1017.7 0.0
22/09:00pm 10.4 5.9 7.1 80 1.6 SSE 20 28 11 15 1018.7 1017.8 0.0
22/08:30pm 10.4 6.0 7.3 81 1.5 SSE 20 30 11 16 1018.6 1017.7 0.0
22/08:00pm 10.4 6.2 7.5 82 1.4 SSE 19 24 10 13 1018.6 - 0.0
22/07:30pm 10.6 6.4 7.5 81 1.5 SSE 19 28 10 15 1018.6 1017.7 0.0
22/07:00pm 11.0 6.9 7.7 80 1.6 SSE 19 26 10 14 1018.3 - 0.0

Other Formats:

Comma delimited format used in spreadsheet applications
http://www.bom.gov.au/fwo/IDS60801/IDS60801.94678.axf

JavaScript Object Notation format (JSON) in row-major order
http://www.bom.gov.au/fwo/IDS60801/IDS60801.94678.json